Time;durP1;ratioP1;P1;durP2;ratioP2;P2;SDS_P1;SDS_P2;PMS_P1;PMS_P2;Temp;Humidity;BMP_temperature;BMP_pressure;BME280_temperature;BME280_humidity;BME280_pressure;Samples;Min_cycle;Max_cycle;Signal;HPM_P1;HPM_P2
2022/06/17 00:00:57;;;;;;;210.70;138.52;;;;;;;;;;5008305;28;20311;-47
2022/06/17 00:03:25;;;;;;;213.50;139.73;;;;;;;;;;5004503;28;20861;-48
2022/06/17 00:05:51;;;;;;;234.90;147.25;;;;;;;;;;5012077;28;20223;-48
2022/06/17 00:08:22;;;;;;;221.95;141.20;;;;;;;;;;5006033;28;20207;-48
2022/06/17 00:10:48;;;;;;;195.77;128.68;;;;;;;;;;5007081;28;20841;-48
2022/06/17 00:13:18;;;;;;;201.93;130.98;;;;;;;;;;5011937;28;20221;-48
2022/06/17 00:15:45;;;;;;;223.43;135.05;;;;;;;;;;5006929;28;20228;-48
2022/06/17 00:18:12;;;;;;;170.75;122.72;;;;;;;;;;5002275;28;20217;-48
2022/06/17 00:20:38;;;;;;;212.30;132.35;;;;;;;;;;5010369;28;20240;-47
2022/06/17 00:23:04;;;;;;;201.88;130.23;;;;;;;;;;5010173;28;20648;-47
2022/06/17 00:25:32;;;;;;;206.27;131.38;;;;;;;;;;5012037;28;20211;-48
2022/06/17 00:27:58;;;;;;;192.88;130.65;;;;;;;;;;5011147;28;20381;-47
2022/06/17 00:30:25;;;;;;;223.85;136.07;;;;;;;;;;5012477;28;20204;-47
2022/06/17 00:32:52;;;;;;;216.75;142.05;;;;;;;;;;5007713;28;20177;-47
2022/06/17 00:35:18;;;;;;;222.77;138.98;;;;;;;;;;5012020;28;20565;-48
2022/06/17 00:37:44;;;;;;;218.23;138.30;;;;;;;;;;5007918;28;20340;-47
2022/06/17 00:40:12;;;;;;;209.23;135.60;;;;;;;;;;5009511;28;20217;-48
2022/06/17 00:42:38;;;;;;;200.43;130.65;;;;;;;;;;5012172;28;20295;-47
2022/06/17 00:45:11;;;;;;;175.05;126.68;;;;;;;;;;5003922;28;20354;-47
2022/06/17 00:47:40;;;;;;;225.80;140.55;;;;;;;;;;5007643;28;20208;-47
2022/06/17 00:50:13;;;;;;;226.30;139.27;;;;;;;;;;5010562;28;20529;-47
2022/06/17 00:52:46;;;;;;;206.60;130.20;;;;;;;;;;5003694;28;20235;-47
2022/06/17 00:55:21;;;;;;;208.68;133.45;;;;;;;;;;5004462;28;20642;-47
2022/06/17 00:57:47;;;;;;;204.20;131.23;;;;;;;;;;5005584;28;20219;-48
2022/06/17 01:00:13;;;;;;;208.57;132.15;;;;;;;;;;5009438;28;20220;-48
2022/06/17 01:02:41;;;;;;;199.00;130.05;;;;;;;;;;5010863;28;20708;-49
2022/06/17 01:05:08;;;;;;;210.77;134.00;;;;;;;;;;5011674;28;20169;-48
2022/06/17 01:07:38;;;;;;;183.20;123.60;;;;;;;;;;5011502;28;20315;-48
2022/06/17 01:10:09;;;;;;;216.80;130.75;;;;;;;;;;5006054;28;20209;-47
2022/06/17 01:13:02;;;;;;;206.35;131.07;;;;;;;;;;4993562;28;20305;-48
2022/06/17 01:15:30;;;;;;;217.57;132.88;;;;;;;;;;5001724;28;20209;-48
2022/06/17 01:17:56;;;;;;;218.65;135.90;;;;;;;;;;5009526;28;20206;-47
2022/06/17 01:20:23;;;;;;;197.60;127.95;;;;;;;;;;5011709;28;20366;-47
2022/06/17 01:22:59;;;;;;;216.10;133.25;;;;;;;;;;5006391;28;20216;-47
2022/06/17 01:25:31;;;;;;;207.45;129.88;;;;;;;;;;5005371;28;20217;-47
2022/06/17 01:27:58;;;;;;;208.27;131.43;;;;;;;;;;5006079;28;20220;-48
2022/06/17 01:30:27;;;;;;;202.25;131.38;;;;;;;;;;5006043;28;20662;-48
2022/06/17 01:32:58;;;;;;;209.27;131.57;;;;;;;;;;5006182;28;20193;-48
2022/06/17 01:35:26;;;;;;;219.70;133.45;;;;;;;;;;5010247;28;20181;-48
2022/06/17 01:37:52;;;;;;;212.60;132.95;;;;;;;;;;5009359;28;20208;-47
2022/06/17 01:40:20;;;;;;;182.32;123.35;;;;;;;;;;5012807;28;20248;-48
2022/06/17 01:42:47;;;;;;;186.52;123.22;;;;;;;;;;5009407;28;20213;-48
2022/06/17 01:45:13;;;;;;;214.20;131.23;;;;;;;;;;5006130;28;20220;-48
2022/06/17 01:47:40;;;;;;;206.13;128.70;;;;;;;;;;5010004;28;20664;-47
2022/06/17 01:50:09;;;;;;;201.82;129.82;;;;;;;;;;5005391;28;20220;-48
2022/06/17 01:52:38;;;;;;;179.88;123.72;;;;;;;;;;5006969;28;20221;-48
2022/06/17 01:55:04;;;;;;;189.57;126.25;;;;;;;;;;4999209;28;20265;-48
2022/06/17 01:57:35;;;;;;;207.85;130.10;;;;;;;;;;5008843;28;20244;-48
2022/06/17 02:00:07;;;;;;;194.50;129.20;;;;;;;;;;5008585;28;20233;-48
2022/06/17 02:02:33;;;;;;;203.10;129.43;;;;;;;;;;5005790;28;20197;-48
2022/06/17 02:05:04;;;;;;;195.25;126.30;;;;;;;;;;5005932;28;20221;-48
2022/06/17 02:07:54;;;;;;;169.43;119.88;;;;;;;;;;5002684;28;20609;-48
2022/06/17 02:10:21;;;;;;;189.55;127.65;;;;;;;;;;5007398;28;20581;-48
2022/06/17 02:12:48;;;;;;;179.55;122.18;;;;;;;;;;5000761;28;20328;-48
2022/06/17 02:15:14;;;;;;;199.05;130.95;;;;;;;;;;5005145;28;20279;-48
2022/06/17 02:17:42;;;;;;;163.45;117.93;;;;;;;;;;5002267;28;20177;-48
2022/06/17 02:20:09;;;;;;;192.23;123.72;;;;;;;;;;5005594;28;20212;-48
2022/06/17 02:22:36;;;;;;;181.05;120.80;;;;;;;;;;5006679;28;20303;-48
2022/06/17 02:25:04;;;;;;;192.25;125.18;;;;;;;;;;5004233;28;20353;-47
2022/06/17 02:27:32;;;;;;;194.05;122.38;;;;;;;;;;5007725;28;20216;-47
2022/06/17 02:29:58;;;;;;;177.18;122.95;;;;;;;;;;5005785;28;20657;-47
2022/06/17 02:32:24;;;;;;;194.25;124.97;;;;;;;;;;5009402;28;20204;-47
2022/06/17 02:34:54;;;;;;;156.13;116.13;;;;;;;;;;5008118;28;20216;-47
2022/06/17 02:37:20;;;;;;;193.90;124.25;;;;;;;;;;5007992;28;20212;-47
2022/06/17 02:39:48;;;;;;;190.27;124.13;;;;;;;;;;5008469;28;20227;-47
2022/06/17 02:42:28;;;;;;;198.85;125.70;;;;;;;;;;5009720;28;20265;-47
2022/06/17 02:44:58;;;;;;;205.75;124.40;;;;;;;;;;5010209;28;20185;-47
2022/06/17 02:47:25;;;;;;;200.82;125.05;;;;;;;;;;5010139;28;20274;-47
2022/06/17 02:49:52;;;;;;;164.93;116.80;;;;;;;;;;5001614;28;20218;-48
2022/06/17 02:52:20;;;;;;;192.68;126.32;;;;;;;;;;5009929;28;20581;-48
2022/06/17 02:55:00;;;;;;;177.68;119.95;;;;;;;;;;5006046;28;20224;-47
2022/06/17 02:57:30;;;;;;;156.40;111.55;;;;;;;;;;5007235;28;20256;-48
2022/06/17 03:00:02;;;;;;;182.65;123.78;;;;;;;;;;5007792;28;20700;-47
2022/06/17 03:02:36;;;;;;;186.25;125.97;;;;;;;;;;5008283;28;20260;-48
2022/06/17 03:05:03;;;;;;;198.20;124.00;;;;;;;;;;5006211;28;20287;-47
2022/06/17 03:07:30;;;;;;;194.00;118.47;;;;;;;;;;5008317;28;20205;-48
2022/06/17 03:09:56;;;;;;;155.40;106.28;;;;;;;;;;5006820;28;20220;-47
2022/06/17 03:12:23;;;;;;;194.43;121.85;;;;;;;;;;5009311;28;20276;-47
2022/06/17 03:14:51;;;;;;;175.10;120.55;;;;;;;;;;5006321;28;20182;-49
2022/06/17 03:17:19;;;;;;;183.77;118.72;;;;;;;;;;5009227;28;20308;-47
2022/06/17 03:19:46;;;;;;;178.45;119.53;;;;;;;;;;5003272;28;20623;-48
2022/06/17 03:22:13;;;;;;;185.73;119.03;;;;;;;;;;5007460;28;20723;-47
2022/06/17 03:24:42;;;;;;;152.75;113.38;;;;;;;;;;5008621;28;20204;-47
2022/06/17 03:27:12;;;;;;;190.32;120.15;;;;;;;;;;5008799;28;20274;-47
2022/06/17 03:29:39;;;;;;;203.82;125.60;;;;;;;;;;5006173;28;20573;-47
2022/06/17 03:32:07;;;;;;;174.55;115.57;;;;;;;;;;5007179;28;20295;-47
2022/06/17 03:34:48;;;;;;;168.10;119.38;;;;;;;;;;5003632;28;20255;-47
2022/06/17 03:37:19;;;;;;;190.77;122.20;;;;;;;;;;4997721;28;20219;-47
2022/06/17 03:39:50;;;;;;;164.90;116.88;;;;;;;;;;4999919;28;20386;-48
2022/06/17 03:42:26;;;;;;;162.20;114.60;;;;;;;;;;5008520;28;20216;-47
2022/06/17 03:45:01;;;;;;;180.52;120.03;;;;;;;;;;5002251;28;20474;-47
2022/06/17 03:47:39;;;;;;;181.45;120.03;;;;;;;;;;5008666;28;20204;-47
2022/06/17 03:50:08;;;;;;;191.25;123.95;;;;;;;;;;5006797;28;20278;-47
2022/06/17 03:52:33;;;;;;;173.95;117.70;;;;;;;;;;4988916;28;20259;-48
2022/06/17 03:54:59;;;;;;;182.27;120.75;;;;;;;;;;5008833;28;20217;-47
2022/06/17 03:57:28;;;;;;;151.07;113.28;;;;;;;;;;5003172;28;20617;-47
2022/06/17 03:59:54;;;;;;;175.32;122.10;;;;;;;;;;4987207;28;20209;-47
2022/06/17 04:02:20;;;;;;;156.23;112.13;;;;;;;;;;5008409;28;20214;-48
2022/06/17 04:04:50;;;;;;;161.27;119.40;;;;;;;;;;5008890;28;20263;-48
2022/06/17 04:07:16;;;;;;;159.63;117.60;;;;;;;;;;5007335;28;20576;-48
2022/06/17 04:09:43;;;;;;;176.25;123.45;;;;;;;;;;4992633;28;20232;-48
2022/06/17 04:12:12;;;;;;;158.68;116.70;;;;;;;;;;5007910;28;20220;-48
2022/06/17 04:14:41;;;;;;;144.13;115.22;;;;;;;;;;4992338;28;20230;-48
2022/06/17 04:17:14;;;;;;;167.55;121.13;;;;;;;;;;5000179;28;20217;-48
2022/06/17 04:19:41;;;;;;;169.10;121.88;;;;;;;;;;5009021;28;20220;-48
2022/06/17 04:22:17;;;;;;;166.48;121.35;;;;;;;;;;5008638;28;20217;-50
2022/06/17 04:24:45;;;;;;;138.20;114.20;;;;;;;;;;5000893;28;20613;-48
2022/06/17 04:27:13;;;;;;;177.30;121.88;;;;;;;;;;5005659;28;20220;-48
2022/06/17 04:29:44;;;;;;;182.60;125.40;;;;;;;;;;5012881;28;20573;-48
2022/06/17 04:32:17;;;;;;;129.27;110.32;;;;;;;;;;5005847;28;20221;-48
2022/06/17 04:34:43;;;;;;;169.77;122.75;;;;;;;;;;5007311;28;20243;-48
2022/06/17 04:37:19;;;;;;;167.00;120.60;;;;;;;;;;5010774;28;20212;-48
2022/06/17 04:39:47;;;;;;;159.00;118.57;;;;;;;;;;5012070;28;20251;-48
2022/06/17 04:42:23;;;;;;;154.50;115.85;;;;;;;;;;5011979;28;20701;-48
2022/06/17 04:44:50;;;;;;;158.57;118.97;;;;;;;;;;5007644;28;20196;-48
2022/06/17 04:47:19;;;;;;;153.27;119.10;;;;;;;;;;5002441;28;20245;-48
2022/06/17 04:49:47;;;;;;;171.70;122.70;;;;;;;;;;5006250;28;20217;-48
2022/06/17 04:52:22;;;;;;;169.80;122.75;;;;;;;;;;5010566;28;20220;-48
2022/06/17 04:54:48;;;;;;;172.27;123.60;;;;;;;;;;5006328;28;20230;-48
2022/06/17 04:57:15;;;;;;;179.52;127.38;;;;;;;;;;5007020;28;20244;-48
2022/06/17 04:59:44;;;;;;;154.30;120.13;;;;;;;;;;5010224;28;20239;-48
2022/06/17 05:02:20;;;;;;;169.55;125.15;;;;;;;;;;5002806;28;20272;-48
2022/06/17 05:04:49;;;;;;;176.25;124.80;;;;;;;;;;4998538;28;20633;-48
2022/06/17 05:07:15;;;;;;;198.13;131.75;;;;;;;;;;5003119;28;20237;-48
2022/06/17 05:09:46;;;;;;;190.68;122.93;;;;;;;;;;4992637;28;20221;-51
2022/06/17 05:12:16;;;;;;;197.93;126.28;;;;;;;;;;4992799;28;20268;-50
2022/06/17 05:14:48;;;;;;;159.60;116.10;;;;;;;;;;4993463;28;20725;-51
2022/06/17 05:17:14;;;;;;;206.10;133.52;;;;;;;;;;4992825;28;20213;-51
2022/06/17 05:19:40;;;;;;;172.90;126.60;;;;;;;;;;4992318;28;20693;-50
2022/06/17 05:22:14;;;;;;;219.30;139.65;;;;;;;;;;4989866;28;20656;-51
2022/06/17 05:24:40;;;;;;;190.10;130.63;;;;;;;;;;4992457;28;20689;-51
2022/06/17 05:27:06;;;;;;;190.95;132.73;;;;;;;;;;4992513;28;20237;-51
2022/06/17 05:29:32;;;;;;;201.43;138.43;;;;;;;;;;5006375;28;20283;-51
2022/06/17 05:31:58;;;;;;;203.40;132.85;;;;;;;;;;5011706;28;20220;-50
2022/06/17 05:34:25;;;;;;;200.80;135.05;;;;;;;;;;5011832;28;20247;-50
2022/06/17 05:36:52;;;;;;;188.98;131.75;;;;;;;;;;5011955;28;20589;-50
2022/06/17 05:39:18;;;;;;;217.60;142.40;;;;;;;;;;5010161;28;20616;-50
2022/06/17 05:41:44;;;;;;;198.40;132.60;;;;;;;;;;5012052;28;20173;-50
2022/06/17 05:44:10;;;;;;;196.45;134.18;;;;;;;;;;5011648;28;20672;-49
2022/06/17 05:46:36;;;;;;;179.90;126.78;;;;;;;;;;5011844;28;20308;-48
2022/06/17 05:49:02;;;;;;;203.57;136.30;;;;;;;;;;5011695;28;20224;-48
2022/06/17 05:51:28;;;;;;;193.15;132.73;;;;;;;;;;5011723;28;20209;-49
2022/06/17 05:53:54;;;;;;;213.68;140.57;;;;;;;;;;5011599;28;20605;-49
2022/06/17 05:56:20;;;;;;;205.25;131.52;;;;;;;;;;5012172;28;20702;-50
2022/06/17 05:58:46;;;;;;;199.75;134.00;;;;;;;;;;4993741;28;20270;-50
2022/06/17 06:01:12;;;;;;;204.93;135.88;;;;;;;;;;5011279;28;20220;-51
2022/06/17 06:03:38;;;;;;;279.95;159.35;;;;;;;;;;4989360;28;20221;-49
2022/06/17 06:06:04;;;;;;;251.88;151.57;;;;;;;;;;4990358;28;20342;-48
2022/06/17 06:08:30;;;;;;;379.30;201.32;;;;;;;;;;4985450;28;20200;-51
2022/06/17 06:10:56;;;;;;;317.63;173.95;;;;;;;;;;4983658;28;20214;-49
2022/06/17 06:13:22;;;;;;;289.67;162.30;;;;;;;;;;4968588;28;20318;-49
2022/06/17 06:15:50;;;;;;;282.42;160.77;;;;;;;;;;4984150;28;20355;-49
2022/06/17 06:18:18;;;;;;;381.08;191.40;;;;;;;;;;4975674;28;20857;-49
2022/06/17 06:20:44;;;;;;;225.88;143.43;;;;;;;;;;4975886;28;20636;-49
2022/06/17 06:23:10;;;;;;;324.25;172.25;;;;;;;;;;4970209;28;20361;-49
2022/06/17 06:25:36;;;;;;;265.95;160.45;;;;;;;;;;4979742;28;20220;-48
2022/06/17 06:28:12;;;;;;;316.35;181.70;;;;;;;;;;4979189;28;20706;-49
2022/06/17 06:30:39;;;;;;;320.88;174.88;;;;;;;;;;4979244;28;20217;-49
2022/06/17 06:33:05;;;;;;;386.60;197.38;;;;;;;;;;4974057;28;20743;-49
2022/06/17 06:35:34;;;;;;;281.05;166.30;;;;;;;;;;4986449;28;20200;-49
2022/06/17 06:38:00;;;;;;;405.20;209.82;;;;;;;;;;4975542;28;20221;-49
2022/06/17 06:40:27;;;;;;;177.25;134.00;;;;;;;;;;4988337;28;20235;-51
2022/06/17 06:42:54;;;;;;;221.00;145.15;;;;;;;;;;5006498;28;20213;-51
2022/06/17 06:45:26;;;;;;;247.57;158.13;;;;;;;;;;5006387;28;20212;-51
2022/06/17 06:47:53;;;;;;;242.20;157.52;;;;;;;;;;5002053;28;20208;-50
2022/06/17 06:50:21;;;;;;;257.83;164.55;;;;;;;;;;5008268;28;20546;-50
2022/06/17 06:52:47;;;;;;;238.57;158.50;;;;;;;;;;5009780;28;20680;-50
2022/06/17 06:55:13;;;;;;;238.13;155.20;;;;;;;;;;5004213;28;20259;-50
2022/06/17 06:57:51;;;;;;;237.35;155.75;;;;;;;;;;5009345;28;20266;-50
2022/06/17 07:00:19;;;;;;;237.85;155.52;;;;;;;;;;5005153;28;20232;-51
2022/06/17 07:02:44;;;;;;;262.85;161.27;;;;;;;;;;5002903;28;20349;-50
2022/06/17 07:05:10;;;;;;;245.57;152.27;;;;;;;;;;5008438;28;20296;-50
2022/06/17 07:07:37;;;;;;;227.23;152.23;;;;;;;;;;5009693;28;20255;-50
2022/06/17 07:10:03;;;;;;;224.38;155.65;;;;;;;;;;5009942;28;20209;-50
2022/06/17 07:12:29;;;;;;;235.70;157.63;;;;;;;;;;5005957;28;20699;-50
2022/06/17 07:14:55;;;;;;;233.32;153.85;;;;;;;;;;4990761;28;20178;-50
2022/06/17 07:17:21;;;;;;;246.48;153.85;;;;;;;;;;4993249;28;20170;-50
2022/06/17 07:19:47;;;;;;;225.93;155.20;;;;;;;;;;5010187;28;20233;-50
2022/06/17 07:22:13;;;;;;;234.02;158.32;;;;;;;;;;5010230;28;20296;-50
2022/06/17 07:24:39;;;;;;;234.73;158.93;;;;;;;;;;5009945;28;20216;-50
2022/06/17 07:27:06;;;;;;;217.02;150.60;;;;;;;;;;5010530;28;20216;-50
2022/06/17 07:29:31;;;;;;;218.63;155.02;;;;;;;;;;5010928;28;20204;-50
2022/06/17 07:31:59;;;;;;;200.90;147.05;;;;;;;;;;5010144;28;20231;-50
2022/06/17 07:34:25;;;;;;;258.05;172.95;;;;;;;;;;5009578;28;20221;-51
2022/06/17 07:39:55;;;;;;;238.25;159.63;;;;;;;;;;5010357;28;20653;-50
2022/06/17 07:42:25;;;;;;;254.88;163.77;;;;;;;;;;5010117;28;20235;-50
2022/06/17 07:44:51;;;;;;;237.43;163.75;;;;;;;;;;5010393;28;20607;-50
2022/06/17 07:47:19;;;;;;;240.75;162.85;;;;;;;;;;5002058;28;20177;-50
2022/06/17 07:49:45;;;;;;;225.85;161.18;;;;;;;;;;4990429;28;20641;-50
2022/06/17 07:52:11;;;;;;;234.07;153.40;;;;;;;;;;4990345;28;20213;-50
2022/06/17 07:54:38;;;;;;;241.75;156.80;;;;;;;;;;4998337;28;20274;-50
2022/06/17 07:57:04;;;;;;;219.70;149.73;;;;;;;;;;5010648;28;20223;-50
2022/06/17 07:59:30;;;;;;;224.65;149.30;;;;;;;;;;5010753;28;20201;-50
2022/06/17 08:01:56;;;;;;;239.80;167.10;;;;;;;;;;5011685;28;20219;-50
2022/06/17 08:04:22;;;;;;;237.65;158.57;;;;;;;;;;5013784;28;20673;-50
2022/06/17 08:06:51;;;;;;;258.33;169.93;;;;;;;;;;5013651;28;20213;-50
2022/06/17 08:09:18;;;;;;;255.68;175.55;;;;;;;;;;5013940;28;20263;-51
2022/06/17 08:11:44;;;;;;;275.90;184.38;;;;;;;;;;5012153;28;20649;-51
2022/06/17 08:14:10;;;;;;;235.90;163.88;;;;;;;;;;5013547;28;20248;-50
2022/06/17 08:16:37;;;;;;;247.40;174.05;;;;;;;;;;5013725;28;20597;-50
2022/06/17 08:19:04;;;;;;;256.05;173.55;;;;;;;;;;5013443;28;20219;-50
2022/06/17 08:21:30;;;;;;;243.45;165.57;;;;;;;;;;5005901;28;20225;-50
2022/06/17 08:23:56;;;;;;;234.30;158.90;;;;;;;;;;5013274;28;20739;-50
2022/06/17 08:26:22;;;;;;;215.63;157.68;;;;;;;;;;5013994;28;20662;-50
2022/06/17 08:28:48;;;;;;;239.45;167.85;;;;;;;;;;5013422;28;20217;-50
2022/06/17 08:31:15;;;;;;;255.18;167.93;;;;;;;;;;4995504;28;20217;-50
2022/06/17 08:33:41;;;;;;;257.10;166.40;;;;;;;;;;5012798;28;20225;-50
2022/06/17 08:36:17;;;;;;;234.73;156.40;;;;;;;;;;4995143;28;20214;-50
2022/06/17 08:38:45;;;;;;;233.60;155.25;;;;;;;;;;5007443;28;20211;-50
2022/06/17 08:41:24;;;;;;;236.02;155.95;;;;;;;;;;5013015;28;20220;-50
2022/06/17 08:44:08;;;;;;;235.27;158.80;;;;;;;;;;5013005;28;20216;-50
2022/06/17 08:46:46;;;;;;;253.48;177.32;;;;;;;;;;5012706;28;20669;-50
2022/06/17 08:49:25;;;;;;;253.00;175.85;;;;;;;;;;5001087;28;20701;-50
2022/06/17 08:52:03;;;;;;;238.43;171.35;;;;;;;;;;5014420;28;20224;-50
2022/06/17 08:54:33;;;;;;;247.87;169.27;;;;;;;;;;5012986;28;20217;-49
2022/06/17 08:57:09;;;;;;;237.67;157.07;;;;;;;;;;5012487;28;20239;-50
2022/06/17 08:59:47;;;;;;;235.55;158.93;;;;;;;;;;5013296;28;20215;-50
2022/06/17 09:02:19;;;;;;;249.52;177.90;;;;;;;;;;5012778;28;20219;-50
2022/06/17 09:05:04;;;;;;;269.83;184.00;;;;;;;;;;5004922;28;20209;-50
2022/06/17 09:07:48;;;;;;;243.68;175.05;;;;;;;;;;5004038;28;20689;-51
2022/06/17 09:10:17;;;;;;;251.68;180.13;;;;;;;;;;5012740;28;20231;-50
2022/06/17 09:12:54;;;;;;;265.73;188.07;;;;;;;;;;5012267;28;20229;-50
2022/06/17 09:15:27;;;;;;;261.65;179.52;;;;;;;;;;5012831;28;20282;-50
2022/06/17 09:17:59;;;;;;;258.13;188.63;;;;;;;;;;4993040;28;20221;-50
2022/06/17 09:20:27;;;;;;;263.25;189.10;;;;;;;;;;4995032;28;20271;-50
2022/06/17 09:22:58;;;;;;;269.60;181.00;;;;;;;;;;5012402;28;20299;-50
2022/06/17 09:25:27;;;;;;;259.02;176.23;;;;;;;;;;5012411;28;20641;-50
2022/06/17 09:27:53;;;;;;;259.45;182.90;;;;;;;;;;5012456;28;20215;-50
2022/06/17 09:30:21;;;;;;;257.65;171.90;;;;;;;;;;5012666;28;20220;-50
2022/06/17 09:32:50;;;;;;;263.27;177.20;;;;;;;;;;4995703;28;20212;-51
2022/06/17 09:35:25;;;;;;;260.13;176.50;;;;;;;;;;4995702;28;20600;-51
2022/06/17 09:38:14;;;;;;;265.02;180.32;;;;;;;;;;5006156;28;20311;-51
2022/06/17 09:40:47;;;;;;;229.30;163.88;;;;;;;;;;4977143;28;20486;-50
2022/06/17 09:43:22;;;;;;;262.08;174.75;;;;;;;;;;5005712;28;20585;-50
2022/06/17 09:45:53;;;;;;;249.73;171.20;;;;;;;;;;5011671;28;20224;-51
2022/06/17 09:48:23;;;;;;;268.85;176.57;;;;;;;;;;5011965;28;20227;-50
2022/06/17 09:50:51;;;;;;;260.25;172.15;;;;;;;;;;5012441;28;20219;-50
2022/06/17 09:53:19;;;;;;;246.48;167.85;;;;;;;;;;5012320;28;20224;-50
2022/06/17 09:55:52;;;;;;;236.93;168.00;;;;;;;;;;5012193;28;20712;-50
2022/06/17 09:58:21;;;;;;;239.43;167.75;;;;;;;;;;5012106;28;20240;-50
2022/06/17 10:00:52;;;;;;;272.80;191.82;;;;;;;;;;5011859;28;20225;-51
2022/06/17 10:03:23;;;;;;;268.52;186.77;;;;;;;;;;4992112;28;20217;-51
2022/06/17 10:05:51;;;;;;;269.17;192.35;;;;;;;;;;5002356;28;20188;-50
2022/06/17 10:08:20;;;;;;;264.63;179.27;;;;;;;;;;5012314;28;20295;-51
2022/06/17 10:10:49;;;;;;;285.40;192.02;;;;;;;;;;5011592;28;20216;-50
2022/06/17 10:13:18;;;;;;;266.02;190.75;;;;;;;;;;5011856;28;20347;-50
2022/06/17 10:18:56;;;;;;;277.17;187.70;;;;;;;;;;5011556;28;20227;-51
2022/06/17 10:21:45;;;;;;;272.50;184.25;;;;;;;;;;5011446;28;20233;-50
2022/06/17 10:24:21;;;;;;;275.58;186.90;;;;;;;;;;4974235;28;20247;-51
2022/06/17 10:26:59;;;;;;;280.13;191.63;;;;;;;;;;5011477;28;20256;-51
2022/06/17 10:29:28;;;;;;;288.00;195.38;;;;;;;;;;5011835;28;20208;-51
2022/06/17 10:31:54;;;;;;;274.70;189.38;;;;;;;;;;5011353;28;20689;-51
2022/06/17 10:34:20;;;;;;;280.85;192.82;;;;;;;;;;5011001;28;20232;-50
2022/06/17 10:36:49;;;;;;;279.63;192.32;;;;;;;;;;5011206;28;20212;-50
2022/06/17 10:39:17;;;;;;;296.52;200.70;;;;;;;;;;5010786;28;20232;-51
2022/06/17 10:41:43;;;;;;;271.20;194.60;;;;;;;;;;5011269;28;20261;-51
2022/06/17 10:44:11;;;;;;;293.55;198.48;;;;;;;;;;5011561;28;20204;-51
2022/06/17 10:46:39;;;;;;;298.75;204.40;;;;;;;;;;5010857;28;20289;-50
2022/06/17 10:49:07;;;;;;;296.73;202.93;;;;;;;;;;5010523;28;20731;-50
2022/06/17 10:51:34;;;;;;;298.25;200.38;;;;;;;;;;5010737;28;20309;-50
2022/06/17 10:54:06;;;;;;;315.70;209.85;;;;;;;;;;5010882;28;20559;-51
2022/06/17 10:56:36;;;;;;;296.83;202.02;;;;;;;;;;5011586;28;20231;-51
2022/06/17 10:59:06;;;;;;;290.90;198.77;;;;;;;;;;5011021;28;20240;-51
2022/06/17 11:01:48;;;;;;;310.50;208.85;;;;;;;;;;5005642;28;20240;-51
2022/06/17 11:04:23;;;;;;;335.10;220.55;;;;;;;;;;4998908;28;20219;-51
2022/06/17 11:06:54;;;;;;;314.02;214.40;;;;;;;;;;5010269;28;20231;-51
2022/06/17 11:09:23;;;;;;;333.23;221.35;;;;;;;;;;4998497;28;20295;-51
2022/06/17 11:12:10;;;;;;;310.05;212.95;;;;;;;;;;5007775;28;20189;-51
2022/06/17 11:14:39;;;;;;;325.40;215.20;;;;;;;;;;5010935;28;20238;-51
2022/06/17 11:17:14;;;;;;;330.15;219.45;;;;;;;;;;5010359;28;20216;-51
2022/06/17 11:19:41;;;;;;;310.92;210.65;;;;;;;;;;5010143;28;20223;-51
2022/06/17 11:22:15;;;;;;;293.67;205.98;;;;;;;;;;5010048;28;20224;-51
2022/06/17 11:24:42;;;;;;;353.88;227.13;;;;;;;;;;5007981;28;20299;-51
2022/06/17 11:27:26;;;;;;;331.90;220.70;;;;;;;;;;5007164;28;20223;-51
2022/06/17 11:29:53;;;;;;;322.67;221.75;;;;;;;;;;5006894;28;20280;-51
2022/06/17 11:32:19;;;;;;;328.13;219.27;;;;;;;;;;4990991;28;20178;-51
2022/06/17 11:34:53;;;;;;;348.65;226.40;;;;;;;;;;5009590;28;20287;-50
2022/06/17 11:37:21;;;;;;;340.70;226.23;;;;;;;;;;5009069;28;20212;-50
2022/06/17 11:39:47;;;;;;;302.00;216.00;;;;;;;;;;5002626;28;20232;-51
2022/06/17 11:42:18;;;;;;;322.27;226.40;;;;;;;;;;5002713;28;20612;-51
2022/06/17 11:44:51;;;;;;;333.40;225.90;;;;;;;;;;5009964;28;20597;-51
2022/06/17 11:47:22;;;;;;;335.33;224.02;;;;;;;;;;4998998;28;20176;-50
2022/06/17 11:49:49;;;;;;;321.20;221.02;;;;;;;;;;5009812;28;20228;-51
2022/06/17 11:52:27;;;;;;;347.20;232.30;;;;;;;;;;5010036;28;20582;-51
2022/06/17 11:54:54;;;;;;;315.80;223.30;;;;;;;;;;5009935;28;20660;-51
2022/06/17 11:57:22;;;;;;;343.42;232.30;;;;;;;;;;5010031;28;20282;-51
2022/06/17 11:59:50;;;;;;;348.35;241.98;;;;;;;;;;5009733;28;20283;-51
2022/06/17 12:02:16;;;;;;;353.80;237.55;;;;;;;;;;5010347;28;20209;-51
2022/06/17 12:04:49;;;;;;;364.20;246.98;;;;;;;;;;5009631;28;20215;-51
2022/06/17 12:07:34;;;;;;;343.40;238.05;;;;;;;;;;4987017;28;20585;-51
2022/06/17 12:10:04;;;;;;;372.55;248.80;;;;;;;;;;4990492;28;20320;-51
2022/06/17 12:12:31;;;;;;;366.58;247.48;;;;;;;;;;5001235;28;20247;-51
2022/06/17 12:15:00;;;;;;;353.05;244.02;;;;;;;;;;5005841;28;20229;-51
2022/06/17 12:17:26;;;;;;;360.92;245.52;;;;;;;;;;4992284;28;20651;-52
2022/06/17 12:19:52;;;;;;;352.15;242.10;;;;;;;;;;5004834;28;20236;-51
2022/06/17 12:22:32;;;;;;;358.55;248.85;;;;;;;;;;4999553;28;20217;-51
2022/06/17 12:25:14;;;;;;;355.30;250.15;;;;;;;;;;5005582;28;20201;-51
2022/06/17 12:27:52;;;;;;;351.30;250.75;;;;;;;;;;4997531;28;20213;-51
2022/06/17 12:30:20;;;;;;;367.45;252.32;;;;;;;;;;5008993;28;20209;-49
2022/06/17 12:32:58;;;;;;;367.10;258.50;;;;;;;;;;4991348;28;20185;-49
2022/06/17 12:35:27;;;;;;;366.40;263.10;;;;;;;;;;5010060;28;20156;-49
2022/06/17 12:38:00;;;;;;;379.07;258.90;;;;;;;;;;5009311;28;20220;-49
2022/06/17 12:40:34;;;;;;;346.75;251.75;;;;;;;;;;5008879;28;20228;-49
2022/06/17 12:43:06;;;;;;;352.52;246.50;;;;;;;;;;5009290;28;20727;-49
2022/06/17 12:45:42;;;;;;;378.83;264.10;;;;;;;;;;5009482;28;20677;-49
2022/06/17 12:48:32;;;;;;;371.77;266.35;;;;;;;;;;5011024;28;20580;-49
2022/06/17 12:53:55;;;;;;;360.50;259.10;;;;;;;;;;5013477;28;20252;-49
2022/06/17 12:56:35;;;;;;;370.17;275.00;;;;;;;;;;5013306;28;20211;-49
2022/06/17 12:59:12;;;;;;;375.15;276.73;;;;;;;;;;5012044;28;20217;-49
2022/06/17 13:01:41;;;;;;;411.95;288.08;;;;;;;;;;5010320;28;20224;-49
2022/06/17 13:04:13;;;;;;;389.83;275.52;;;;;;;;;;5009743;28;20217;-49
2022/06/17 13:06:58;;;;;;;374.92;270.15;;;;;;;;;;5009251;28;20872;-49
2022/06/17 13:09:33;;;;;;;374.88;271.02;;;;;;;;;;5011868;28;20300;-49
2022/06/17 13:12:14;;;;;;;379.63;276.35;;;;;;;;;;5012070;28;20224;-49
2022/06/17 13:15:01;;;;;;;385.27;289.02;;;;;;;;;;5012272;28;20660;-49
2022/06/17 13:17:31;;;;;;;390.30;300.92;;;;;;;;;;5012590;28;20222;-49
2022/06/17 13:20:20;;;;;;;371.48;297.42;;;;;;;;;;5012636;28;20875;-49
2022/06/17 13:22:53;;;;;;;371.80;291.60;;;;;;;;;;5012467;28;20213;-49
2022/06/17 13:25:33;;;;;;;389.90;298.67;;;;;;;;;;5012594;28;20225;-49
2022/06/17 13:28:02;;;;;;;381.98;307.27;;;;;;;;;;5012427;28;20212;-48
2022/06/17 13:30:34;;;;;;;401.02;319.60;;;;;;;;;;5010836;28;20212;-49
2022/06/17 13:33:03;;;;;;;409.52;318.98;;;;;;;;;;5009612;28;20616;-49
2022/06/17 13:35:37;;;;;;;413.45;314.88;;;;;;;;;;5010569;28;20177;-49
2022/06/17 13:38:05;;;;;;;365.70;294.83;;;;;;;;;;5011255;28;20231;-49
2022/06/17 13:40:38;;;;;;;388.27;291.85;;;;;;;;;;5012146;28;20229;-49
2022/06/17 13:43:07;;;;;;;377.90;281.60;;;;;;;;;;5012111;28;20226;-49
2022/06/17 13:46:06;;;;;;;394.13;298.58;;;;;;;;;;4992331;28;20233;-49
2022/06/17 13:48:53;;;;;;;381.63;288.20;;;;;;;;;;4958551;28;20218;-49
2022/06/17 13:51:28;;;;;;;380.50;295.52;;;;;;;;;;4989687;28;20653;-49
2022/06/17 13:54:08;;;;;;;384.65;293.75;;;;;;;;;;4990135;28;20161;-49
2022/06/17 13:57:01;;;;;;;382.98;300.63;;;;;;;;;;4992824;28;20622;-49
2022/06/17 13:59:31;;;;;;;381.08;301.65;;;;;;;;;;4968382;28;20735;-49
2022/06/17 14:02:20;;;;;;;383.70;299.50;;;;;;;;;;4991728;28;20221;-49
2022/06/17 14:05:01;;;;;;;363.67;323.40;;;;;;;;;;4992248;28;20745;-49
2022/06/17 14:07:45;;;;;;;381.05;319.83;;;;;;;;;;4991939;28;20706;-49
2022/06/17 14:10:30;;;;;;;371.45;313.80;;;;;;;;;;4992375;28;20701;-49
2022/06/17 14:12:56;;;;;;;377.55;321.63;;;;;;;;;;4992082;28;20220;-50
2022/06/17 14:15:36;;;;;;;409.05;330.30;;;;;;;;;;4994157;28;20218;-52
2022/06/17 14:18:04;;;;;;;375.17;317.98;;;;;;;;;;5007754;28;20252;-53